Tropical Cyclones
[Index]
Main Index Home Page Stock Weather Photos Extreme Storms Discussion Storm News and Storm Chasing Reports Tropical Cyclones / Hurricanes / Typhoons Weather Data and Links Wild Fires / Bushfires Weather Observation Techniques Weather Picture Catalogue Tornado Pictures and Reports Stock Video Footage and DVDs for sale
Season 2002-2003 Tropical Cyclone 200203_01 Track Map
Season 2002-2003 Summaries: [BoM-AU] [JTWC-AU] [JTWC-SIO] [JTWC-SPAC] [JTWC-SH]
<<- Previous TC | BoM 2002-2003 Season | Next TC ->>

click for intensity scale information  Lat/long Grid: Show Hide

 Date Labels: Show Hide

Bureau of Meteorology Tropical Cyclone Data

Name: 200203_01
Number: 861 / 200203_01

04 Jan 2003 00:00 UTC to 25 Jan 2003 12:00 UTC

    date/time    lat    long    hPa   cat  kts
2003-01-04 00   10.0   135.5   1004         20          
2003-01-04 03   10.2   136.0   1002         20          
2003-01-04 06   10.4   136.3   1000         25          
2003-01-04 09   10.7   136.4    999         25          
2003-01-04 12   11.2   136.3    998         30          
2003-01-04 15   11.3   135.9    996         30          
2003-01-04 18   11.4   135.7    994    1    30          
2003-01-04 21   11.4   135.6    992    1    35          
2003-01-05 00   11.4   135.4    991    1    35          
2003-01-05 03   11.5   135.5    990    1    40          
2003-01-05 06   11.6   135.8    989    1    45          
2003-01-05 09   11.9   135.8    988    1    50          
2003-01-05 09   11.9   135.7    988    1    50          
2003-01-05 12   12.1   135.5    988    1    50          
2003-01-05 15   12.3   135.0    990    1    40          
2003-01-05 18   12.4   134.9    993    1    35          
2003-01-06 00   12.6   134.7    997         30          
2003-01-06 06   12.7   134.5    995    1    25          
2003-01-06 12   12.8   134.3    997                     
2003-01-06 18   12.9   134.2    996                     
2003-01-07 00   13.1   134.1    999                     
2003-01-07 06   13.2   134.2    997                     
2003-01-07 12   13.3   134.3    999                     
2003-01-07 18   13.5   134.5    997                     
2003-01-08 00   13.6   134.6    998                     
2003-01-08 06   13.7   134.7    995    1                
2003-01-08 12   13.9   134.7    997                     
2003-01-08 18   14.0   134.6    995    1                
2003-01-09 00   14.2   134.5    997                     
2003-01-09 06   14.4   134.5    996                     
2003-01-09 12   14.7   135.5    998                     
2003-01-09 18   14.9   134.6    996                     
2003-01-10 00   15.1   134.8    998                     
2003-01-10 06   15.3   135.0    996                     
2003-01-10 12   15.4   135.5    997                     
2003-01-10 18   15.5   136.0    997                     
2003-01-11 00   15.7   136.3    999                     
2003-01-11 06   15.9   136.5    998                     
2003-01-11 12   15.5   136.9   1000                     
2003-01-11 18   15.2   137.2    999                     
2003-01-12 00   14.8   137.3   1001                     
2003-01-12 06   14.9   136.9    999                     
2003-01-12 12   15.1   136.6   1000                     
2003-01-12 18   15.2   136.2    999                     
2003-01-13 00   15.3   135.8   1001                     
2003-01-13 06   15.0   135.0    999                     
2003-01-13 12   14.8   134.1   1000                     
2003-01-13 18   14.5   133.3    999                     
2003-01-14 00   14.2   132.4   1002                     
2003-01-14 06   13.8   132.5    999                     
2003-01-14 12   13.5   132.5   1000                     
2003-01-14 18   13.1   132.6   1000                     
2003-01-15 00   12.7   132.6   1001                     
2003-01-15 06   13.4   133.5    999                     
2003-01-15 12   14.2   134.9    999                     
2003-01-15 18   15.1   136.4    998                     
2003-01-16 00   15.8   137.0    999                     
2003-01-16 06   16.2   137.2    998                     
2003-01-16 12   16.4   137.6   1000                     
2003-01-16 18   16.6   137.4   1000                     
2003-01-17 00   16.7   136.8   1001                     
2003-01-17 06   16.5   136.5   1002                     
2003-01-17 12   16.4   136.4   1005                     
2003-01-17 18   16.3   136.3   1004                     
2003-01-18 00   16.4   135.6   1005                     
2003-01-18 06   16.5   135.0   1003                     
2003-01-19 00   15.1   132.2   1005                     
2003-01-20 00   13.8   128.7   1005                     
2003-01-21 00   12.5   125.3   1005         20          
2003-01-21 06   13.2   124.5   1004         20          
2003-01-21 12   13.7   123.6   1005         20          
2003-01-21 18   14.2   122.3   1005         20          
2003-01-22 00   14.5   121.0   1006         20          
2003-01-22 06   14.9   119.8   1004         20          
2003-01-22 12   15.3   119.2   1004         20          
2003-01-22 18   15.9   118.8   1004         20          
2003-01-23 00   16.4   118.5   1002         20          
2003-01-23 06   16.8   118.3    998         25          
2003-01-23 12   17.1   118.1    998         25          
2003-01-23 18   17.4   118.0    998         25          
2003-01-24 00   17.8   118.0    998         25          
2003-01-24 06   18.2   118.2    996         30          
2003-01-24 12   18.6   118.4    995    1    30          
2003-01-24 15   18.9   118.5    994    1    30          
2003-01-24 18   19.4   118.6    994    1    35          
2003-01-24 21   19.8   118.8    994    1    40          
2003-01-25 00   20.1   118.9    994    1    45          
2003-01-25 03   20.3   119.1    994    1    40          
2003-01-25 06   20.6   119.3    994    1    30          
2003-01-25 09   21.2   119.4    995    1    25          
2003-01-25 12   21.9   119.4    995    1    25          
Winds are 10-min average.

Tropical cyclone tracks developed by Michael Bath using data from the Bureau of Meteorology and Google Maps.


[Australian Severe Weather index] [Copyright Notice] [Email Contacts] [Search This Site] [Privacy Policy]
Document: tropical_cyclone_200203_01.htm Updated: 29 June 2017